sensor_id;sensor_type;location;lat;lon;timestamp;noise_LAeq;noise_LA_min;noise_LA_max;noise_LA01;noise_LA95
73206;Laerm;61415;55.702;37.460;2022-12-07T00:00:26;65.54;57.77;71.19;;
73206;Laerm;61415;55.702;37.460;2022-12-07T00:01:04;60.94;54.64;66.36;;
73206;Laerm;61415;55.702;37.460;2022-12-07T00:01:38;59.75;53.41;64.54;;
73206;Laerm;61415;55.702;37.460;2022-12-07T00:02:10;62.08;55.54;67.71;;
73206;Laerm;61415;55.702;37.460;2022-12-07T00:02:40;60.93;55.03;67.45;;
73206;Laerm;61415;55.702;37.460;2022-12-07T00:03:11;58.66;55.04;64.21;;
73206;Laerm;61415;55.702;37.460;2022-12-07T00:03:43;56.52;52.69;61.00;;
73206;Laerm;61415;55.702;37.460;2022-12-07T00:04:14;62.20;55.27;67.82;;
73206;Laerm;61415;55.702;37.460;2022-12-07T00:04:45;58.78;52.61;74.46;;
73206;Laerm;61415;55.702;37.460;2022-12-07T00:05:16;57.10;53.20;63.63;;
73206;Laerm;61415;55.702;37.460;2022-12-07T00:05:47;61.01;55.50;67.26;;
73206;Laerm;61415;55.702;37.460;2022-12-07T00:06:18;63.27;56.55;69.80;;
73206;Laerm;61415;55.702;37.460;2022-12-07T00:06:52;60.78;55.91;66.66;;
73206;Laerm;61415;55.702;37.460;2022-12-07T00:07:23;58.57;53.73;62.84;;
73206;Laerm;61415;55.702;37.460;2022-12-07T00:07:54;61.22;54.87;65.47;;
73206;Laerm;61415;55.702;37.460;2022-12-07T00:08:24;59.13;53.45;62.74;;
73206;Laerm;61415;55.702;37.460;2022-12-07T00:08:55;60.49;55.69;64.50;;
73206;Laerm;61415;55.702;37.460;2022-12-07T00:09:26;56.70;50.24;63.34;;
73206;Laerm;61415;55.702;37.460;2022-12-07T00:09:57;59.61;54.58;64.65;;
73206;Laerm;61415;55.702;37.460;2022-12-07T00:10:27;60.46;54.67;65.40;;
73206;Laerm;61415;55.702;37.460;2022-12-07T00:11:02;59.35;54.51;66.11;;
73206;Laerm;61415;55.702;37.460;2022-12-07T00:11:33;57.63;53.90;60.76;;
73206;Laerm;61415;55.702;37.460;2022-12-07T00:12:04;62.92;52.63;73.08;;
73206;Laerm;61415;55.702;37.460;2022-12-07T00:12:35;60.61;52.90;66.79;;
73206;Laerm;61415;55.702;37.460;2022-12-07T00:13:06;59.41;53.52;65.66;;
73206;Laerm;61415;55.702;37.460;2022-12-07T00:13:37;61.46;54.75;65.63;;
73206;Laerm;61415;55.702;37.460;2022-12-07T00:14:11;64.18;55.21;71.14;;
73206;Laerm;61415;55.702;37.460;2022-12-07T00:14:42;63.35;55.61;68.61;;
73206;Laerm;61415;55.702;37.460;2022-12-07T00:15:13;58.70;52.91;64.44;;
73206;Laerm;61415;55.702;37.460;2022-12-07T00:15:44;61.72;51.18;68.86;;
73206;Laerm;61415;55.702;37.460;2022-12-07T00:16:16;57.75;52.22;63.39;;
73206;Laerm;61415;55.702;37.460;2022-12-07T00:16:48;60.06;53.25;65.41;;
73206;Laerm;61415;55.702;37.460;2022-12-07T00:17:19;62.23;56.24;68.65;;
73206;Laerm;61415;55.702;37.460;2022-12-07T00:17:50;60.50;54.29;67.12;;
73206;Laerm;61415;55.702;37.460;2022-12-07T00:18:20;61.77;58.45;66.11;;
73206;Laerm;61415;55.702;37.460;2022-12-07T00:18:51;60.11;53.25;65.72;;
73206;Laerm;61415;55.702;37.460;2022-12-07T00:19:22;59.74;54.06;65.34;;
73206;Laerm;61415;55.702;37.460;2022-12-07T00:19:53;61.15;55.15;66.61;;
73206;Laerm;61415;55.702;37.460;2022-12-07T00:20:24;60.37;53.11;65.35;;
73206;Laerm;61415;55.702;37.460;2022-12-07T00:21:01;57.80;52.06;64.90;;
73206;Laerm;61415;55.702;37.460;2022-12-07T00:21:33;56.46;51.90;61.41;;
73206;Laerm;61415;55.702;37.460;2022-12-07T00:22:04;57.07;52.62;63.12;;
73206;Laerm;61415;55.702;37.460;2022-12-07T00:22:35;57.68;52.16;61.98;;
73206;Laerm;61415;55.702;37.460;2022-12-07T00:23:06;60.20;54.39;65.64;;
73206;Laerm;61415;55.702;37.460;2022-12-07T00:23:37;61.38;53.32;68.94;;
73206;Laerm;61415;55.702;37.460;2022-12-07T00:24:08;66.67;54.43;73.60;;
73206;Laerm;61415;55.702;37.460;2022-12-07T00:24:40;58.98;52.68;65.63;;
73206;Laerm;61415;55.702;37.460;2022-12-07T00:25:10;62.54;57.14;67.02;;
73206;Laerm;61415;55.702;37.460;2022-12-07T00:25:41;58.68;52.74;63.91;;
73206;Laerm;61415;55.702;37.460;2022-12-07T00:26:16;60.69;54.81;71.72;;
73206;Laerm;61415;55.702;37.460;2022-12-07T00:26:47;62.48;57.48;69.03;;
73206;Laerm;61415;55.702;37.460;2022-12-07T00:27:18;61.29;53.99;65.30;;
73206;Laerm;61415;55.702;37.460;2022-12-07T00:27:48;69.67;56.15;88.59;;
73206;Laerm;61415;55.702;37.460;2022-12-07T00:28:19;61.64;54.36;70.77;;
73206;Laerm;61415;55.702;37.460;2022-12-07T00:28:51;61.23;55.18;67.80;;
73206;Laerm;61415;55.702;37.460;2022-12-07T00:29:22;63.44;56.57;70.51;;
73206;Laerm;61415;55.702;37.460;2022-12-07T00:29:54;57.76;53.83;61.65;;
73206;Laerm;61415;55.702;37.460;2022-12-07T00:30:24;58.44;53.46;62.96;;
73206;Laerm;61415;55.702;37.460;2022-12-07T00:31:09;59.44;52.81;66.18;;
73206;Laerm;61415;55.702;37.460;2022-12-07T00:31:40;60.04;53.67;65.05;;
73206;Laerm;61415;55.702;37.460;2022-12-07T00:32:11;56.09;49.59;62.33;;
73206;Laerm;61415;55.702;37.460;2022-12-07T00:32:42;61.61;50.50;67.03;;
73206;Laerm;61415;55.702;37.460;2022-12-07T00:33:13;61.83;55.02;68.67;;
73206;Laerm;61415;55.702;37.460;2022-12-07T00:33:43;59.52;54.52;65.71;;
73206;Laerm;61415;55.702;37.460;2022-12-07T00:34:15;61.20;53.67;67.44;;
73206;Laerm;61415;55.702;37.460;2022-12-07T00:34:46;61.22;56.00;66.07;;
73206;Laerm;61415;55.702;37.460;2022-12-07T00:35:17;65.16;58.30;71.89;;
73206;Laerm;61415;55.702;37.460;2022-12-07T00:35:54;61.17;53.67;68.07;;
73206;Laerm;61415;55.702;37.460;2022-12-07T00:36:25;58.21;53.44;62.13;;
73206;Laerm;61415;55.702;37.460;2022-12-07T00:36:56;56.52;52.15;64.30;;
73206;Laerm;61415;55.702;37.460;2022-12-07T00:37:26;55.80;51.00;64.61;;
73206;Laerm;61415;55.702;37.460;2022-12-07T00:37:57;62.22;53.92;73.93;;
73206;Laerm;61415;55.702;37.460;2022-12-07T00:38:29;57.53;53.35;64.95;;
73206;Laerm;61415;55.702;37.460;2022-12-07T00:39:00;59.63;53.34;66.50;;
73206;Laerm;61415;55.702;37.460;2022-12-07T00:39:31;60.90;54.42;68.39;;
73206;Laerm;61415;55.702;37.460;2022-12-07T00:40:02;60.15;55.31;66.78;;
73206;Laerm;61415;55.702;37.460;2022-12-07T00:40:32;61.42;55.79;69.04;;
73206;Laerm;61415;55.702;37.460;2022-12-07T00:41:04;58.59;55.36;61.90;;
73206;Laerm;61415;55.702;37.460;2022-12-07T00:41:35;58.63;53.22;64.70;;
73206;Laerm;61415;55.702;37.460;2022-12-07T00:42:06;61.57;54.24;69.14;;
73206;Laerm;61415;55.702;37.460;2022-12-07T00:42:37;66.25;60.58;71.71;;
73206;Laerm;61415;55.702;37.460;2022-12-07T00:43:08;60.79;55.94;65.52;;
73206;Laerm;61415;55.702;37.460;2022-12-07T00:43:39;60.32;56.48;63.92;;
73206;Laerm;61415;55.702;37.460;2022-12-07T00:44:10;58.21;52.35;64.17;;
73206;Laerm;61415;55.702;37.460;2022-12-07T00:44:40;60.03;54.86;65.65;;
73206;Laerm;61415;55.702;37.460;2022-12-07T00:45:11;61.10;56.32;65.67;;
73206;Laerm;61415;55.702;37.460;2022-12-07T00:45:42;60.41;53.47;65.53;;
73206;Laerm;61415;55.702;37.460;2022-12-07T00:46:13;60.39;54.71;63.95;;
73206;Laerm;61415;55.702;37.460;2022-12-07T00:46:44;57.74;51.21;63.48;;
73206;Laerm;61415;55.702;37.460;2022-12-07T00:47:16;57.75;52.94;62.01;;
73206;Laerm;61415;55.702;37.460;2022-12-07T00:47:46;59.90;54.08;64.17;;
73206;Laerm;61415;55.702;37.460;2022-12-07T00:48:17;58.75;54.24;62.99;;
73206;Laerm;61415;55.702;37.460;2022-12-07T00:48:49;58.36;54.91;61.97;;
73206;Laerm;61415;55.702;37.460;2022-12-07T00:49:20;61.22;54.65;67.20;;
73206;Laerm;61415;55.702;37.460;2022-12-07T00:49:50;58.28;52.94;69.13;;
73206;Laerm;61415;55.702;37.460;2022-12-07T00:50:21;57.58;53.34;66.61;;
73206;Laerm;61415;55.702;37.460;2022-12-07T00:50:52;57.60;51.78;63.85;;
73206;Laerm;61415;55.702;37.460;2022-12-07T00:51:23;57.06;52.09;62.52;;
73206;Laerm;61415;55.702;37.460;2022-12-07T00:51:54;58.73;52.77;64.67;;
73206;Laerm;61415;55.702;37.460;2022-12-07T00:52:25;56.61;50.95;63.93;;
73206;Laerm;61415;55.702;37.460;2022-12-07T00:52:56;60.94;55.42;66.36;;
73206;Laerm;61415;55.702;37.460;2022-12-07T00:53:27;57.66;52.31;62.74;;
73206;Laerm;61415;55.702;37.460;2022-12-07T00:53:57;58.62;51.21;66.94;;
73206;Laerm;61415;55.702;37.460;2022-12-07T00:54:28;60.17;54.74;65.59;;
73206;Laerm;61415;55.702;37.460;2022-12-07T00:54:59;59.60;52.96;67.08;;
73206;Laerm;61415;55.702;37.460;2022-12-07T00:55:32;58.39;51.66;64.36;;
73206;Laerm;61415;55.702;37.460;2022-12-07T00:56:07;55.16;50.04;63.44;;
73206;Laerm;61415;55.702;37.460;2022-12-07T00:56:38;60.34;52.39;67.29;;
73206;Laerm;61415;55.702;37.460;2022-12-07T00:57:09;61.20;54.57;67.11;;
73206;Laerm;61415;55.702;37.460;2022-12-07T00:57:40;61.57;56.05;67.41;;
73206;Laerm;61415;55.702;37.460;2022-12-07T00:58:11;58.85;53.16;65.11;;
73206;Laerm;61415;55.702;37.460;2022-12-07T00:58:42;63.46;52.04;70.96;;
73206;Laerm;61415;55.702;37.460;2022-12-07T00:59:13;60.89;54.77;66.89;;
73206;Laerm;61415;55.702;37.460;2022-12-07T00:59:47;60.11;54.74;64.43;;
73206;Laerm;61415;55.702;37.460;2022-12-07T01:00:18;60.84;54.06;69.38;;
73206;Laerm;61415;55.702;37.460;2022-12-07T01:00:49;63.91;54.47;70.38;;
73206;Laerm;61415;55.702;37.460;2022-12-07T01:01:20;59.02;53.07;65.71;;
73206;Laerm;61415;55.702;37.460;2022-12-07T01:01:51;57.85;53.32;62.75;;
73206;Laerm;61415;55.702;37.460;2022-12-07T01:02:21;58.48;53.54;64.24;;
73206;Laerm;61415;55.702;37.460;2022-12-07T01:02:52;59.33;54.98;65.35;;
73206;Laerm;61415;55.702;37.460;2022-12-07T01:03:23;62.08;55.08;68.55;;
73206;Laerm;61415;55.702;37.460;2022-12-07T01:03:54;55.94;52.23;62.80;;
73206;Laerm;61415;55.702;37.460;2022-12-07T01:04:25;57.74;53.66;62.10;;
73206;Laerm;61415;55.702;37.460;2022-12-07T01:04:56;57.44;52.88;63.19;;
73206;Laerm;61415;55.702;37.460;2022-12-07T01:05:26;60.31;55.01;64.83;;
73206;Laerm;61415;55.702;37.460;2022-12-07T01:05:57;63.21;54.18;70.83;;
73206;Laerm;61415;55.702;37.460;2022-12-07T01:06:28;59.60;53.23;64.91;;
73206;Laerm;61415;55.702;37.460;2022-12-07T01:06:59;56.74;51.72;61.04;;
73206;Laerm;61415;55.702;37.460;2022-12-07T01:07:30;56.33;51.99;61.67;;
73206;Laerm;61415;55.702;37.460;2022-12-07T01:08:01;57.45;52.81;61.71;;
73206;Laerm;61415;55.702;37.460;2022-12-07T01:08:33;60.87;55.67;66.12;;
73206;Laerm;61415;55.702;37.460;2022-12-07T01:09:04;59.86;54.93;65.74;;
73206;Laerm;61415;55.702;37.460;2022-12-07T01:09:36;60.55;54.03;69.12;;
73206;Laerm;61415;55.702;37.460;2022-12-07T01:10:07;59.53;52.86;65.31;;
73206;Laerm;61415;55.702;37.460;2022-12-07T01:10:38;60.65;54.67;66.49;;
73206;Laerm;61415;55.702;37.460;2022-12-07T01:11:09;60.88;54.12;66.29;;
73206;Laerm;61415;55.702;37.460;2022-12-07T01:11:41;57.83;53.27;62.49;;
73206;Laerm;61415;55.702;37.460;2022-12-07T01:12:12;61.59;54.17;66.94;;
73206;Laerm;61415;55.702;37.460;2022-12-07T01:12:43;58.40;53.97;63.12;;
73206;Laerm;61415;55.702;37.460;2022-12-07T01:13:14;58.31;53.89;62.34;;
73206;Laerm;61415;55.702;37.460;2022-12-07T01:13:45;63.11;54.65;68.21;;
73206;Laerm;61415;55.702;37.460;2022-12-07T01:14:16;60.35;53.27;68.51;;
73206;Laerm;61415;55.702;37.460;2022-12-07T01:14:46;63.79;54.53;72.15;;
73206;Laerm;61415;55.702;37.460;2022-12-07T01:15:17;59.69;52.75;64.42;;
73206;Laerm;61415;55.702;37.460;2022-12-07T01:15:48;57.12;51.72;61.76;;
73206;Laerm;61415;55.702;37.460;2022-12-07T01:16:19;58.56;52.29;66.19;;
73206;Laerm;61415;55.702;37.460;2022-12-07T01:16:50;58.92;54.13;63.51;;
73206;Laerm;61415;55.702;37.460;2022-12-07T01:17:21;58.66;53.97;63.70;;
73206;Laerm;61415;55.702;37.460;2022-12-07T01:17:52;60.10;54.14;64.54;;
73206;Laerm;61415;55.702;37.460;2022-12-07T01:18:25;58.40;53.03;65.23;;
73206;Laerm;61415;55.702;37.460;2022-12-07T01:18:56;59.87;54.03;65.66;;
73206;Laerm;61415;55.702;37.460;2022-12-07T01:19:27;57.63;54.06;60.67;;
73206;Laerm;61415;55.702;37.460;2022-12-07T01:19:58;63.02;52.84;72.21;;
73206;Laerm;61415;55.702;37.460;2022-12-07T01:20:29;63.32;53.77;70.04;;
73206;Laerm;61415;55.702;37.460;2022-12-07T01:21:07;55.43;50.56;61.14;;
73206;Laerm;61415;55.702;37.460;2022-12-07T01:21:39;62.26;53.81;69.38;;
73206;Laerm;61415;55.702;37.460;2022-12-07T01:22:10;58.31;53.18;62.64;;
73206;Laerm;61415;55.702;37.460;2022-12-07T01:22:41;60.30;55.04;66.31;;
73206;Laerm;61415;55.702;37.460;2022-12-07T01:23:12;60.60;53.79;65.66;;
73206;Laerm;61415;55.702;37.460;2022-12-07T01:23:43;58.81;52.84;64.54;;
73206;Laerm;61415;55.702;37.460;2022-12-07T01:24:14;58.37;53.59;63.10;;
73206;Laerm;61415;55.702;37.460;2022-12-07T01:24:45;60.97;56.23;67.16;;
73206;Laerm;61415;55.702;37.460;2022-12-07T01:25:18;60.75;55.48;66.83;;
73206;Laerm;61415;55.702;37.460;2022-12-07T01:25:58;60.35;53.75;65.62;;
73206;Laerm;61415;55.702;37.460;2022-12-07T01:26:30;58.93;52.05;65.34;;
73206;Laerm;61415;55.702;37.460;2022-12-07T01:27:01;60.30;54.93;64.54;;
73206;Laerm;61415;55.702;37.460;2022-12-07T01:27:32;61.48;53.42;66.06;;
73206;Laerm;61415;55.702;37.460;2022-12-07T01:28:03;60.41;55.80;65.89;;
73206;Laerm;61415;55.702;37.460;2022-12-07T01:28:34;60.62;56.06;66.05;;
73206;Laerm;61415;55.702;37.460;2022-12-07T01:29:04;58.06;53.40;62.90;;
73206;Laerm;61415;55.702;37.460;2022-12-07T01:29:35;60.35;54.86;65.06;;
73206;Laerm;61415;55.702;37.460;2022-12-07T01:30:06;56.67;51.61;60.43;;
73206;Laerm;61415;55.702;37.460;2022-12-07T01:30:37;56.93;52.08;62.86;;
73206;Laerm;61415;55.702;37.460;2022-12-07T01:31:09;61.80;54.67;66.61;;
73206;Laerm;61415;55.702;37.460;2022-12-07T01:31:42;60.62;56.40;64.93;;
73206;Laerm;61415;55.702;37.460;2022-12-07T01:32:12;61.61;55.56;70.09;;
73206;Laerm;61415;55.702;37.460;2022-12-07T01:32:43;60.70;54.92;65.76;;
73206;Laerm;61415;55.702;37.460;2022-12-07T01:33:14;58.07;53.24;63.34;;
73206;Laerm;61415;55.702;37.460;2022-12-07T01:33:45;58.60;53.96;63.06;;
73206;Laerm;61415;55.702;37.460;2022-12-07T01:34:17;61.64;54.73;70.08;;
73206;Laerm;61415;55.702;37.460;2022-12-07T01:34:48;61.85;57.04;65.65;;
73206;Laerm;61415;55.702;37.460;2022-12-07T01:35:18;60.77;55.47;66.38;;
73206;Laerm;61415;55.702;37.460;2022-12-07T01:35:49;59.13;53.58;65.39;;
73206;Laerm;61415;55.702;37.460;2022-12-07T01:36:21;62.49;57.52;65.71;;
73206;Laerm;61415;55.702;37.460;2022-12-07T01:36:52;62.16;56.65;67.82;;
73206;Laerm;61415;55.702;37.460;2022-12-07T01:37:23;58.51;53.32;63.09;;
73206;Laerm;61415;55.702;37.460;2022-12-07T01:37:54;63.83;57.26;74.64;;
73206;Laerm;61415;55.702;37.460;2022-12-07T01:38:25;65.64;54.17;74.35;;
73206;Laerm;61415;55.702;37.460;2022-12-07T01:38:57;60.06;54.94;66.91;;
73206;Laerm;61415;55.702;37.460;2022-12-07T01:39:28;58.82;53.27;68.34;;
73206;Laerm;61415;55.702;37.460;2022-12-07T01:39:59;62.19;54.99;68.68;;
73206;Laerm;61415;55.702;37.460;2022-12-07T01:40:30;61.43;54.45;65.89;;
73206;Laerm;61415;55.702;37.460;2022-12-07T01:41:01;60.19;55.66;66.27;;
73206;Laerm;61415;55.702;37.460;2022-12-07T01:41:33;62.63;57.54;69.40;;
73206;Laerm;61415;55.702;37.460;2022-12-07T01:42:05;62.20;56.66;66.16;;
73206;Laerm;61415;55.702;37.460;2022-12-07T01:42:35;60.19;55.82;64.04;;
73206;Laerm;61415;55.702;37.460;2022-12-07T01:43:16;59.59;55.02;64.42;;
73206;Laerm;61415;55.702;37.460;2022-12-07T01:45:41;64.41;53.20;72.67;;
73206;Laerm;61415;55.702;37.460;2022-12-07T01:46:12;61.25;53.92;68.79;;
73206;Laerm;61415;55.702;37.460;2022-12-07T01:46:44;61.06;56.59;65.86;;
73206;Laerm;61415;55.702;37.460;2022-12-07T01:47:15;62.38;58.44;66.96;;
73206;Laerm;61415;55.702;37.460;2022-12-07T01:47:47;60.65;54.68;64.56;;
73206;Laerm;61415;55.702;37.460;2022-12-07T01:48:22;61.56;55.56;66.88;;
73206;Laerm;61415;55.702;37.460;2022-12-07T01:48:54;62.48;55.37;67.62;;
73206;Laerm;61415;55.702;37.460;2022-12-07T01:49:39;62.79;57.87;66.56;;
73206;Laerm;61415;55.702;37.460;2022-12-07T01:50:11;59.96;53.61;65.79;;
73206;Laerm;61415;55.702;37.460;2022-12-07T01:50:42;59.91;55.54;64.77;;
73206;Laerm;61415;55.702;37.460;2022-12-07T01:51:14;63.54;56.80;72.50;;
73206;Laerm;61415;55.702;37.460;2022-12-07T01:51:45;63.25;57.83;67.82;;
73206;Laerm;61415;55.702;37.460;2022-12-07T01:52:21;62.59;55.83;68.38;;
73206;Laerm;61415;55.702;37.460;2022-12-07T01:52:54;60.61;54.72;65.79;;
73206;Laerm;61415;55.702;37.460;2022-12-07T01:53:28;58.88;54.51;64.29;;
73206;Laerm;61415;55.702;37.460;2022-12-07T01:54:00;64.80;57.39;71.15;;
73206;Laerm;61415;55.702;37.460;2022-12-07T01:54:31;59.30;52.79;64.86;;
73206;Laerm;61415;55.702;37.460;2022-12-07T01:55:04;60.91;52.43;66.09;;
73206;Laerm;61415;55.702;37.460;2022-12-07T01:55:37;62.29;58.37;66.94;;
73206;Laerm;61415;55.702;37.460;2022-12-07T01:56:09;64.79;60.00;68.73;;
73206;Laerm;61415;55.702;37.460;2022-12-07T01:56:46;60.13;53.19;64.48;;
73206;Laerm;61415;55.702;37.460;2022-12-07T01:57:19;60.14;53.49;65.96;;
73206;Laerm;61415;55.702;37.460;2022-12-07T01:57:52;60.94;56.71;64.87;;
73206;Laerm;61415;55.702;37.460;2022-12-07T01:58:23;63.29;58.33;68.52;;
73206;Laerm;61415;55.702;37.460;2022-12-07T01:58:54;60.16;54.96;64.85;;
73206;Laerm;61415;55.702;37.460;2022-12-07T01:59:26;59.18;53.54;63.11;;
73206;Laerm;61415;55.702;37.460;2022-12-07T01:59:57;62.14;55.04;67.68;;
73206;Laerm;61415;55.702;37.460;2022-12-07T02:00:29;62.87;56.95;68.39;;
73206;Laerm;61415;55.702;37.460;2022-12-07T02:01:00;62.70;57.96;68.11;;
73206;Laerm;61415;55.702;37.460;2022-12-07T02:01:30;64.09;59.82;67.48;;
73206;Laerm;61415;55.702;37.460;2022-12-07T02:02:02;60.93;55.18;65.86;;
73206;Laerm;61415;55.702;37.460;2022-12-07T02:02:43;64.39;56.89;70.07;;
73206;Laerm;61415;55.702;37.460;2022-12-07T02:03:46;62.28;57.29;66.96;;
73206;Laerm;61415;55.702;37.460;2022-12-07T02:04:17;61.39;55.91;65.31;;
73206;Laerm;61415;55.702;37.460;2022-12-07T02:04:48;62.46;57.15;66.22;;
73206;Laerm;61415;55.702;37.460;2022-12-07T02:05:19;58.19;54.06;62.46;;
73206;Laerm;61415;55.702;37.460;2022-12-07T02:05:50;59.62;54.24;69.19;;
73206;Laerm;61415;55.702;37.460;2022-12-07T02:06:22;60.15;54.69;65.36;;
73206;Laerm;61415;55.702;37.460;2022-12-07T02:06:54;62.80;55.93;68.64;;
73206;Laerm;61415;55.702;37.460;2022-12-07T02:07:25;60.58;54.83;64.99;;
73206;Laerm;61415;55.702;37.460;2022-12-07T02:07:57;59.03;53.53;65.14;;
73206;Laerm;61415;55.702;37.460;2022-12-07T02:08:29;59.37;54.92;64.40;;
73206;Laerm;61415;55.702;37.460;2022-12-07T02:08:59;60.96;54.54;65.69;;
73206;Laerm;61415;55.702;37.460;2022-12-07T02:09:30;61.99;57.45;66.57;;
73206;Laerm;61415;55.702;37.460;2022-12-07T02:10:50;63.60;56.05;68.06;;
73206;Laerm;61415;55.702;37.460;2022-12-07T02:11:21;60.22;55.05;67.07;;
73206;Laerm;61415;55.702;37.460;2022-12-07T02:11:52;59.75;55.75;64.72;;
73206;Laerm;61415;55.702;37.460;2022-12-07T02:12:24;60.37;53.41;67.15;;
73206;Laerm;61415;55.702;37.460;2022-12-07T02:13:05;59.08;53.98;64.31;;
73206;Laerm;61415;55.702;37.460;2022-12-07T02:13:37;63.12;55.50;69.84;;
73206;Laerm;61415;55.702;37.460;2022-12-07T02:14:09;62.85;58.27;68.26;;
73206;Laerm;61415;55.702;37.460;2022-12-07T02:14:40;63.40;58.65;69.19;;
73206;Laerm;61415;55.702;37.460;2022-12-07T02:15:11;63.04;56.90;67.95;;
73206;Laerm;61415;55.702;37.460;2022-12-07T02:16:51;61.59;55.81;67.21;;
73206;Laerm;61415;55.702;37.460;2022-12-07T02:17:27;61.52;54.09;66.73;;
73206;Laerm;61415;55.702;37.460;2022-12-07T02:20:13;62.45;56.21;66.23;;
73206;Laerm;61415;55.702;37.460;2022-12-07T02:23:48;64.11;58.53;68.70;;
73206;Laerm;61415;55.702;37.460;2022-12-07T02:24:31;62.61;56.88;66.81;;
73206;Laerm;61415;55.702;37.460;2022-12-07T02:26:02;63.66;60.07;67.51;;
73206;Laerm;61415;55.702;37.460;2022-12-07T02:28:33;62.31;57.60;70.15;;
73206;Laerm;61415;55.702;37.460;2022-12-07T02:29:21;61.28;56.81;65.88;;
73206;Laerm;61415;55.702;37.460;2022-12-07T02:30:42;64.43;57.11;72.01;;
73206;Laerm;61415;55.702;37.460;2022-12-07T02:31:17;64.04;58.07;70.11;;
73206;Laerm;61415;55.702;37.460;2022-12-07T02:31:52;61.09;54.42;68.60;;
73206;Laerm;61415;55.702;37.460;2022-12-07T02:33:00;61.18;55.38;68.43;;
73206;Laerm;61415;55.702;37.460;2022-12-07T02:33:37;62.21;57.04;67.30;;
73206;Laerm;61415;55.702;37.460;2022-12-07T02:34:13;59.78;54.57;65.60;;
73206;Laerm;61415;55.702;37.460;2022-12-07T02:34:55;64.13;59.75;68.08;;
73206;Laerm;61415;55.702;37.460;2022-12-07T02:36:19;63.83;58.88;70.80;;
73206;Laerm;61415;55.702;37.460;2022-12-07T02:36:56;64.42;58.83;70.82;;
73206;Laerm;61415;55.702;37.460;2022-12-07T02:37:39;61.96;55.84;69.37;;
73206;Laerm;61415;55.702;37.460;2022-12-07T02:38:16;61.06;56.86;65.04;;
73206;Laerm;61415;55.702;37.460;2022-12-07T02:38:52;61.96;54.45;69.16;;
73206;Laerm;61415;55.702;37.460;2022-12-07T02:40:04;60.90;56.31;65.19;;
73206;Laerm;61415;55.702;37.460;2022-12-07T02:42:02;63.57;58.80;70.45;;
73206;Laerm;61415;55.702;37.460;2022-12-07T02:42:37;63.10;59.20;67.10;;
73206;Laerm;61415;55.702;37.460;2022-12-07T02:43:17;64.92;58.70;69.67;;
73206;Laerm;61415;55.702;37.460;2022-12-07T02:43:54;65.26;60.73;69.47;;
73206;Laerm;61415;55.702;37.460;2022-12-07T02:44:26;65.50;59.09;70.34;;
73206;Laerm;61415;55.702;37.460;2022-12-07T02:44:58;64.43;59.25;67.75;;
73206;Laerm;61415;55.702;37.460;2022-12-07T02:45:29;61.23;57.54;66.08;;
73206;Laerm;61415;55.702;37.460;2022-12-07T02:46:02;65.30;58.37;70.37;;
73206;Laerm;61415;55.702;37.460;2022-12-07T02:46:38;64.95;59.37;70.16;;
73206;Laerm;61415;55.702;37.460;2022-12-07T02:47:12;64.77;56.68;69.01;;
73206;Laerm;61415;55.702;37.460;2022-12-07T02:47:44;60.61;55.48;65.39;;
73206;Laerm;61415;55.702;37.460;2022-12-07T02:48:17;64.50;58.70;69.48;;
73206;Laerm;61415;55.702;37.460;2022-12-07T02:48:49;62.79;58.34;66.70;;
73206;Laerm;61415;55.702;37.460;2022-12-07T02:49:23;63.99;59.64;67.32;;
73206;Laerm;61415;55.702;37.460;2022-12-07T02:49:55;62.99;59.24;68.72;;
73206;Laerm;61415;55.702;37.460;2022-12-07T02:50:25;65.99;61.37;69.40;;
73206;Laerm;61415;55.702;37.460;2022-12-07T02:50:56;64.17;60.61;67.48;;
73206;Laerm;61415;55.702;37.460;2022-12-07T02:51:30;66.18;61.82;70.95;;
73206;Laerm;61415;55.702;37.460;2022-12-07T02:52:01;64.37;56.62;69.86;;
73206;Laerm;61415;55.702;37.460;2022-12-07T02:52:32;64.62;56.73;70.19;;
73206;Laerm;61415;55.702;37.460;2022-12-07T02:53:03;68.23;60.04;75.97;;
73206;Laerm;61415;55.702;37.460;2022-12-07T02:54:16;62.29;55.10;68.15;;
73206;Laerm;61415;55.702;37.460;2022-12-07T02:54:48;63.05;56.91;68.98;;
73206;Laerm;61415;55.702;37.460;2022-12-07T02:55:19;63.47;58.10;67.42;;
73206;Laerm;61415;55.702;37.460;2022-12-07T02:55:53;63.52;58.80;70.55;;
73206;Laerm;61415;55.702;37.460;2022-12-07T02:57:35;63.50;58.89;68.12;;
73206;Laerm;61415;55.702;37.460;2022-12-07T03:00:00;65.16;61.52;68.93;;
73206;Laerm;61415;55.702;37.460;2022-12-07T03:00:34;62.67;58.90;66.97;;
73206;Laerm;61415;55.702;37.460;2022-12-07T03:03:04;65.77;60.06;69.50;;
73206;Laerm;61415;55.702;37.460;2022-12-07T03:03:37;67.95;62.42;72.53;;
73206;Laerm;61415;55.702;37.460;2022-12-07T03:06:00;65.51;61.14;69.56;;
73206;Laerm;61415;55.702;37.460;2022-12-07T03:06:36;65.75;59.55;71.65;;
73206;Laerm;61415;55.702;37.460;2022-12-07T03:08:44;64.31;57.58;68.62;;
73206;Laerm;61415;55.702;37.460;2022-12-07T03:09:22;67.38;58.77;71.92;;
73206;Laerm;61415;55.702;37.460;2022-12-07T03:10:50;65.17;58.98;71.01;;
73206;Laerm;61415;55.702;37.460;2022-12-07T03:13:46;64.96;60.92;69.07;;
73206;Laerm;61415;55.702;37.460;2022-12-07T03:14:21;67.07;59.59;73.62;;
73206;Laerm;61415;55.702;37.460;2022-12-07T03:14:55;64.48;60.71;68.77;;
73206;Laerm;61415;55.702;37.460;2022-12-07T03:16:37;66.98;62.35;72.07;;
73206;Laerm;61415;55.702;37.460;2022-12-07T03:17:13;65.67;61.89;69.76;;
73206;Laerm;61415;55.702;37.460;2022-12-07T03:17:45;64.84;58.68;70.24;;
73206;Laerm;61415;55.702;37.460;2022-12-07T03:18:18;64.94;59.07;69.88;;
73206;Laerm;61415;55.702;37.460;2022-12-07T03:19:27;65.88;62.59;69.38;;
73206;Laerm;61415;55.702;37.460;2022-12-07T03:19:58;66.64;63.20;70.35;;
73206;Laerm;61415;55.702;37.460;2022-12-07T03:20:31;66.62;62.36;70.86;;
73206;Laerm;61415;55.702;37.460;2022-12-07T03:21:05;66.43;62.02;70.64;;
73206;Laerm;61415;55.702;37.460;2022-12-07T03:21:38;68.45;65.57;71.56;;
73206;Laerm;61415;55.702;37.460;2022-12-07T03:22:10;66.85;61.82;70.59;;
73206;Laerm;61415;55.702;37.460;2022-12-07T03:22:42;66.96;63.23;70.04;;
73206;Laerm;61415;55.702;37.460;2022-12-07T03:23:14;67.01;61.03;70.69;;
73206;Laerm;61415;55.702;37.460;2022-12-07T03:23:48;66.39;61.11;69.16;;
73206;Laerm;61415;55.702;37.460;2022-12-07T03:24:22;66.54;60.77;71.62;;
73206;Laerm;61415;55.702;37.460;2022-12-07T03:24:55;65.70;59.43;69.47;;
73206;Laerm;61415;55.702;37.460;2022-12-07T03:25:27;63.72;59.95;67.28;;
73206;Laerm;61415;55.702;37.460;2022-12-07T03:25:59;66.39;62.24;70.45;;
73206;Laerm;61415;55.702;37.460;2022-12-07T03:26:32;67.11;63.67;69.82;;
73206;Laerm;61415;55.702;37.460;2022-12-07T03:27:16;66.02;62.20;68.87;;
73206;Laerm;61415;55.702;37.460;2022-12-07T03:28:22;66.06;62.11;70.61;;
73206;Laerm;61415;55.702;37.460;2022-12-07T03:28:55;66.36;61.47;70.38;;
73206;Laerm;61415;55.702;37.460;2022-12-07T03:29:30;69.40;63.79;76.30;;